sensor_id;sensor_type;location;lat;lon;timestamp;P1;durP1;ratioP1;P2;durP2;ratioP2
479;SDS011;226;48.606;9.096;2023-05-10T00:01:51;1.50;;;1.40;;
479;SDS011;226;48.606;9.096;2023-05-10T00:04:19;2.50;;;1.80;;
479;SDS011;226;48.606;9.096;2023-05-10T00:06:47;1.63;;;1.43;;
479;SDS011;226;48.606;9.096;2023-05-10T00:09:16;1.67;;;1.57;;
479;SDS011;226;48.606;9.096;2023-05-10T00:11:44;1.60;;;1.50;;
479;SDS011;226;48.606;9.096;2023-05-10T00:14:14;1.60;;;1.50;;
479;SDS011;226;48.606;9.096;2023-05-10T00:16:42;1.27;;;1.27;;
479;SDS011;226;48.606;9.096;2023-05-10T00:19:10;1.50;;;1.40;;
479;SDS011;226;48.606;9.096;2023-05-10T00:21:39;1.30;;;1.20;;
479;SDS011;226;48.606;9.096;2023-05-10T00:24:07;1.10;;;1.00;;
479;SDS011;226;48.606;9.096;2023-05-10T00:26:36;1.33;;;1.23;;
479;SDS011;226;48.606;9.096;2023-05-10T00:29:04;1.30;;;1.20;;
479;SDS011;226;48.606;9.096;2023-05-10T00:31:34;1.03;;;1.00;;
479;SDS011;226;48.606;9.096;2023-05-10T00:34:02;1.27;;;0.97;;
479;SDS011;226;48.606;9.096;2023-05-10T00:36:30;1.10;;;1.00;;
479;SDS011;226;48.606;9.096;2023-05-10T00:38:59;0.80;;;0.80;;
479;SDS011;226;48.606;9.096;2023-05-10T00:41:29;0.70;;;0.70;;
479;SDS011;226;48.606;9.096;2023-05-10T00:43:59;0.60;;;0.60;;
479;SDS011;226;48.606;9.096;2023-05-10T00:46:28;0.70;;;0.70;;
479;SDS011;226;48.606;9.096;2023-05-10T00:48:58;0.50;;;0.50;;
479;SDS011;226;48.606;9.096;2023-05-10T00:51:27;0.70;;;0.70;;
479;SDS011;226;48.606;9.096;2023-05-10T00:53:55;0.60;;;0.60;;
479;SDS011;226;48.606;9.096;2023-05-10T00:56:24;0.93;;;0.93;;
479;SDS011;226;48.606;9.096;2023-05-10T00:58:54;0.80;;;0.80;;
479;SDS011;226;48.606;9.096;2023-05-10T01:01:23;0.73;;;0.73;;
479;SDS011;226;48.606;9.096;2023-05-10T01:03:52;0.80;;;0.80;;
479;SDS011;226;48.606;9.096;2023-05-10T01:06:22;2.60;;;0.60;;
479;SDS011;226;48.606;9.096;2023-05-10T01:08:50;0.80;;;0.80;;
479;SDS011;226;48.606;9.096;2023-05-10T01:11:18;0.60;;;0.60;;
479;SDS011;226;48.606;9.096;2023-05-10T01:13:47;0.73;;;0.73;;
479;SDS011;226;48.606;9.096;2023-05-10T01:16:18;4.87;;;0.80;;
479;SDS011;226;48.606;9.096;2023-05-10T01:18:46;0.60;;;0.60;;
479;SDS011;226;48.606;9.096;2023-05-10T01:21:17;0.70;;;0.70;;
479;SDS011;226;48.606;9.096;2023-05-10T01:26:43;0.50;;;0.50;;
479;SDS011;226;48.606;9.096;2023-05-10T01:29:18;0.53;;;0.53;;
479;SDS011;226;48.606;9.096;2023-05-10T01:32:06;1.27;;;0.87;;
479;SDS011;226;48.606;9.096;2023-05-10T01:34:40;0.50;;;0.50;;
479;SDS011;226;48.606;9.096;2023-05-10T01:37:13;0.50;;;0.50;;
479;SDS011;226;48.606;9.096;2023-05-10T01:39:44;0.57;;;0.57;;
479;SDS011;226;48.606;9.096;2023-05-10T01:42:16;0.50;;;0.50;;
479;SDS011;226;48.606;9.096;2023-05-10T01:44:46;0.60;;;0.60;;
479;SDS011;226;48.606;9.096;2023-05-10T01:47:20;0.60;;;0.60;;
479;SDS011;226;48.606;9.096;2023-05-10T01:49:51;0.70;;;0.70;;
479;SDS011;226;48.606;9.096;2023-05-10T01:52:22;0.50;;;0.50;;
479;SDS011;226;48.606;9.096;2023-05-10T01:54:55;0.60;;;0.60;;
479;SDS011;226;48.606;9.096;2023-05-10T01:57:25;0.50;;;0.50;;
479;SDS011;226;48.606;9.096;2023-05-10T01:59:54;0.53;;;0.53;;
479;SDS011;226;48.606;9.096;2023-05-10T02:02:24;0.60;;;0.60;;
479;SDS011;226;48.606;9.096;2023-05-10T02:04:53;0.83;;;0.83;;
479;SDS011;226;48.606;9.096;2023-05-10T02:07:22;0.70;;;0.70;;
479;SDS011;226;48.606;9.096;2023-05-10T02:09:51;0.57;;;0.57;;
479;SDS011;226;48.606;9.096;2023-05-10T02:12:19;0.40;;;0.40;;
479;SDS011;226;48.606;9.096;2023-05-10T02:14:49;0.50;;;0.50;;
479;SDS011;226;48.606;9.096;2023-05-10T02:17:18;3.20;;;0.60;;
479;SDS011;226;48.606;9.096;2023-05-10T02:19:49;0.60;;;0.60;;
479;SDS011;226;48.606;9.096;2023-05-10T02:22:17;0.60;;;0.60;;
479;SDS011;226;48.606;9.096;2023-05-10T02:24:46;0.60;;;0.60;;
479;SDS011;226;48.606;9.096;2023-05-10T02:27:15;0.70;;;0.70;;
479;SDS011;226;48.606;9.096;2023-05-10T02:29:45;0.70;;;0.70;;
479;SDS011;226;48.606;9.096;2023-05-10T02:32:14;0.73;;;0.73;;
479;SDS011;226;48.606;9.096;2023-05-10T02:34:44;0.70;;;0.70;;
479;SDS011;226;48.606;9.096;2023-05-10T02:37:19;1.13;;;0.93;;
479;SDS011;226;48.606;9.096;2023-05-10T02:39:48;0.70;;;0.70;;
479;SDS011;226;48.606;9.096;2023-05-10T02:42:18;0.70;;;0.70;;
479;SDS011;226;48.606;9.096;2023-05-10T02:44:47;0.70;;;0.70;;
479;SDS011;226;48.606;9.096;2023-05-10T02:47:16;1.10;;;0.77;;
479;SDS011;226;48.606;9.096;2023-05-10T02:49:44;0.77;;;0.77;;
479;SDS011;226;48.606;9.096;2023-05-10T02:52:13;0.77;;;0.77;;
479;SDS011;226;48.606;9.096;2023-05-10T02:54:48;0.80;;;0.80;;
479;SDS011;226;48.606;9.096;2023-05-10T02:57:17;0.83;;;0.83;;
479;SDS011;226;48.606;9.096;2023-05-10T02:59:50;1.10;;;0.90;;
479;SDS011;226;48.606;9.096;2023-05-10T03:02:18;1.23;;;1.20;;
479;SDS011;226;48.606;9.096;2023-05-10T03:04:48;0.70;;;0.70;;
479;SDS011;226;48.606;9.096;2023-05-10T03:07:17;0.80;;;0.80;;
479;SDS011;226;48.606;9.096;2023-05-10T03:09:48;0.93;;;0.93;;
479;SDS011;226;48.606;9.096;2023-05-10T03:12:19;1.37;;;0.80;;
479;SDS011;226;48.606;9.096;2023-05-10T03:14:54;0.70;;;0.70;;
479;SDS011;226;48.606;9.096;2023-05-10T03:17:28;1.03;;;0.77;;
479;SDS011;226;48.606;9.096;2023-05-10T03:19:58;0.80;;;0.80;;
479;SDS011;226;48.606;9.096;2023-05-10T03:22:28;0.67;;;0.67;;
479;SDS011;226;48.606;9.096;2023-05-10T03:25:00;0.90;;;0.90;;
479;SDS011;226;48.606;9.096;2023-05-10T03:27:32;1.53;;;0.70;;
479;SDS011;226;48.606;9.096;2023-05-10T03:30:02;0.77;;;0.77;;
479;SDS011;226;48.606;9.096;2023-05-10T03:32:30;1.00;;;1.00;;
479;SDS011;226;48.606;9.096;2023-05-10T03:35:01;0.90;;;0.90;;
479;SDS011;226;48.606;9.096;2023-05-10T03:37:29;0.70;;;0.70;;
479;SDS011;226;48.606;9.096;2023-05-10T03:40:00;1.10;;;1.10;;
479;SDS011;226;48.606;9.096;2023-05-10T03:42:28;1.60;;;1.10;;
479;SDS011;226;48.606;9.096;2023-05-10T03:44:57;1.23;;;1.23;;
479;SDS011;226;48.606;9.096;2023-05-10T03:47:25;1.10;;;1.00;;
479;SDS011;226;48.606;9.096;2023-05-10T03:49:53;0.90;;;0.90;;
479;SDS011;226;48.606;9.096;2023-05-10T03:52:22;1.03;;;1.03;;
479;SDS011;226;48.606;9.096;2023-05-10T03:54:50;1.10;;;1.00;;
479;SDS011;226;48.606;9.096;2023-05-10T03:57:20;0.87;;;0.87;;
479;SDS011;226;48.606;9.096;2023-05-10T03:59:48;1.40;;;1.30;;
479;SDS011;226;48.606;9.096;2023-05-10T04:02:17;1.10;;;1.00;;
479;SDS011;226;48.606;9.096;2023-05-10T04:04:45;1.27;;;1.23;;
479;SDS011;226;48.606;9.096;2023-05-10T04:07:14;1.10;;;1.10;;
479;SDS011;226;48.606;9.096;2023-05-10T04:09:43;1.07;;;1.03;;
479;SDS011;226;48.606;9.096;2023-05-10T04:12:11;1.47;;;1.47;;
479;SDS011;226;48.606;9.096;2023-05-10T04:14:41;1.00;;;1.00;;
479;SDS011;226;48.606;9.096;2023-05-10T04:17:09;1.47;;;1.37;;
479;SDS011;226;48.606;9.096;2023-05-10T04:19:38;3.93;;;1.60;;
479;SDS011;226;48.606;9.096;2023-05-10T04:22:06;1.60;;;1.00;;
479;SDS011;226;48.606;9.096;2023-05-10T04:24:34;1.30;;;1.30;;
479;SDS011;226;48.606;9.096;2023-05-10T04:27:03;2.40;;;1.50;;
479;SDS011;226;48.606;9.096;2023-05-10T04:29:31;0.97;;;0.97;;
479;SDS011;226;48.606;9.096;2023-05-10T04:32:01;2.10;;;1.10;;
479;SDS011;226;48.606;9.096;2023-05-10T04:34:29;0.97;;;0.87;;
479;SDS011;226;48.606;9.096;2023-05-10T04:37:00;1.40;;;1.10;;
479;SDS011;226;48.606;9.096;2023-05-10T04:39:28;0.80;;;0.80;;
479;SDS011;226;48.606;9.096;2023-05-10T04:41:57;0.97;;;0.97;;
479;SDS011;226;48.606;9.096;2023-05-10T04:44:25;0.93;;;0.93;;
479;SDS011;226;48.606;9.096;2023-05-10T04:46:54;1.50;;;1.40;;
479;SDS011;226;48.606;9.096;2023-05-10T04:49:23;1.40;;;1.30;;
479;SDS011;226;48.606;9.096;2023-05-10T04:51:52;1.90;;;1.17;;
479;SDS011;226;48.606;9.096;2023-05-10T04:54:20;0.80;;;0.80;;
479;SDS011;226;48.606;9.096;2023-05-10T04:56:49;1.13;;;1.13;;
479;SDS011;226;48.606;9.096;2023-05-10T04:59:17;1.03;;;1.03;;
479;SDS011;226;48.606;9.096;2023-05-10T05:01:45;1.43;;;1.23;;
479;SDS011;226;48.606;9.096;2023-05-10T05:04:14;1.23;;;1.10;;
479;SDS011;226;48.606;9.096;2023-05-10T05:06:43;6.90;;;1.50;;
479;SDS011;226;48.606;9.096;2023-05-10T05:09:12;1.20;;;1.10;;
479;SDS011;226;48.606;9.096;2023-05-10T05:11:40;1.23;;;1.23;;
479;SDS011;226;48.606;9.096;2023-05-10T05:14:09;1.17;;;1.07;;
479;SDS011;226;48.606;9.096;2023-05-10T05:16:37;2.00;;;0.90;;
479;SDS011;226;48.606;9.096;2023-05-10T05:19:06;1.37;;;1.37;;
479;SDS011;226;48.606;9.096;2023-05-10T05:21:34;1.13;;;1.13;;
479;SDS011;226;48.606;9.096;2023-05-10T05:24:04;2.07;;;1.50;;
479;SDS011;226;48.606;9.096;2023-05-10T05:26:33;2.50;;;1.60;;
479;SDS011;226;48.606;9.096;2023-05-10T05:29:02;1.30;;;1.20;;
479;SDS011;226;48.606;9.096;2023-05-10T05:31:30;1.50;;;1.40;;
479;SDS011;226;48.606;9.096;2023-05-10T05:33:58;3.53;;;2.00;;
479;SDS011;226;48.606;9.096;2023-05-10T05:36:27;1.90;;;1.57;;
479;SDS011;226;48.606;9.096;2023-05-10T05:38:55;2.40;;;1.53;;
479;SDS011;226;48.606;9.096;2023-05-10T05:41:25;0.87;;;0.87;;
479;SDS011;226;48.606;9.096;2023-05-10T05:43:53;4.20;;;1.30;;
479;SDS011;226;48.606;9.096;2023-05-10T05:46:21;1.53;;;1.27;;
479;SDS011;226;48.606;9.096;2023-05-10T05:48:50;1.53;;;1.47;;
479;SDS011;226;48.606;9.096;2023-05-10T05:51:18;1.37;;;1.27;;
479;SDS011;226;48.606;9.096;2023-05-10T05:53:46;1.20;;;1.20;;
479;SDS011;226;48.606;9.096;2023-05-10T05:56:15;1.30;;;1.07;;
479;SDS011;226;48.606;9.096;2023-05-10T05:58:48;2.00;;;1.37;;
479;SDS011;226;48.606;9.096;2023-05-10T06:01:25;5.60;;;1.27;;
479;SDS011;226;48.606;9.096;2023-05-10T06:03:54;2.20;;;0.93;;
479;SDS011;226;48.606;9.096;2023-05-10T06:06:22;1.40;;;1.30;;
479;SDS011;226;48.606;9.096;2023-05-10T06:08:50;1.40;;;1.30;;
479;SDS011;226;48.606;9.096;2023-05-10T06:11:19;2.37;;;1.77;;
479;SDS011;226;48.606;9.096;2023-05-10T06:13:50;2.83;;;1.73;;
479;SDS011;226;48.606;9.096;2023-05-10T06:16:18;3.30;;;2.10;;
479;SDS011;226;48.606;9.096;2023-05-10T06:18:46;3.13;;;1.87;;
479;SDS011;226;48.606;9.096;2023-05-10T06:21:15;4.07;;;2.03;;
479;SDS011;226;48.606;9.096;2023-05-10T06:23:43;4.60;;;2.37;;
479;SDS011;226;48.606;9.096;2023-05-10T06:26:11;1.57;;;1.47;;
479;SDS011;226;48.606;9.096;2023-05-10T06:28:40;1.77;;;1.67;;
479;SDS011;226;48.606;9.096;2023-05-10T06:31:10;1.67;;;1.57;;
479;SDS011;226;48.606;9.096;2023-05-10T06:33:38;1.67;;;1.57;;
479;SDS011;226;48.606;9.096;2023-05-10T06:36:07;4.67;;;1.43;;
479;SDS011;226;48.606;9.096;2023-05-10T06:38:35;2.37;;;1.30;;
479;SDS011;226;48.606;9.096;2023-05-10T06:41:04;1.10;;;1.10;;
479;SDS011;226;48.606;9.096;2023-05-10T06:43:32;1.90;;;1.80;;
479;SDS011;226;48.606;9.096;2023-05-10T06:46:01;1.33;;;1.23;;
479;SDS011;226;48.606;9.096;2023-05-10T06:48:30;1.30;;;1.20;;
479;SDS011;226;48.606;9.096;2023-05-10T06:50:59;1.03;;;1.03;;
479;SDS011;226;48.606;9.096;2023-05-10T06:53:27;1.00;;;1.00;;
479;SDS011;226;48.606;9.096;2023-05-10T06:55:56;1.67;;;1.57;;
479;SDS011;226;48.606;9.096;2023-05-10T06:58:24;1.37;;;1.00;;
479;SDS011;226;48.606;9.096;2023-05-10T07:00:52;2.20;;;1.73;;
479;SDS011;226;48.606;9.096;2023-05-10T07:03:21;0.80;;;0.80;;
479;SDS011;226;48.606;9.096;2023-05-10T07:05:51;1.30;;;1.20;;
479;SDS011;226;48.606;9.096;2023-05-10T07:08:19;1.53;;;1.43;;
479;SDS011;226;48.606;9.096;2023-05-10T07:10:48;1.10;;;1.10;;
479;SDS011;226;48.606;9.096;2023-05-10T07:13:16;0.87;;;0.87;;
479;SDS011;226;48.606;9.096;2023-05-10T07:15:45;2.97;;;1.10;;
479;SDS011;226;48.606;9.096;2023-05-10T07:18:13;0.90;;;0.90;;
479;SDS011;226;48.606;9.096;2023-05-10T07:20:41;1.00;;;1.00;;
479;SDS011;226;48.606;9.096;2023-05-10T07:23:11;1.13;;;1.13;;
479;SDS011;226;48.606;9.096;2023-05-10T07:25:39;1.30;;;1.10;;
479;SDS011;226;48.606;9.096;2023-05-10T07:28:08;1.17;;;1.10;;
479;SDS011;226;48.606;9.096;2023-05-10T07:30:36;1.03;;;1.03;;
479;SDS011;226;48.606;9.096;2023-05-10T07:33:05;1.03;;;1.00;;
479;SDS011;226;48.606;9.096;2023-05-10T07:35:34;1.20;;;1.13;;
479;SDS011;226;48.606;9.096;2023-05-10T07:38:03;1.47;;;1.37;;
479;SDS011;226;48.606;9.096;2023-05-10T07:40:32;0.80;;;0.80;;
479;SDS011;226;48.606;9.096;2023-05-10T07:43:01;2.97;;;1.10;;
479;SDS011;226;48.606;9.096;2023-05-10T07:45:29;0.97;;;0.97;;
479;SDS011;226;48.606;9.096;2023-05-10T07:47:57;1.43;;;1.03;;
479;SDS011;226;48.606;9.096;2023-05-10T07:50:26;1.00;;;1.00;;
479;SDS011;226;48.606;9.096;2023-05-10T07:52:54;0.90;;;0.90;;
479;SDS011;226;48.606;9.096;2023-05-10T07:55:23;0.80;;;0.80;;
479;SDS011;226;48.606;9.096;2023-05-10T07:57:53;0.80;;;0.80;;
479;SDS011;226;48.606;9.096;2023-05-10T08:00:22;0.93;;;0.93;;
479;SDS011;226;48.606;9.096;2023-05-10T08:02:50;1.43;;;1.10;;
479;SDS011;226;48.606;9.096;2023-05-10T08:05:19;1.00;;;1.00;;
479;SDS011;226;48.606;9.096;2023-05-10T08:07:47;0.70;;;0.70;;
479;SDS011;226;48.606;9.096;2023-05-10T08:10:16;0.63;;;0.63;;
479;SDS011;226;48.606;9.096;2023-05-10T08:12:44;0.87;;;0.87;;
479;SDS011;226;48.606;9.096;2023-05-10T08:15:14;2.97;;;1.37;;
479;SDS011;226;48.606;9.096;2023-05-10T08:17:43;1.13;;;0.90;;
479;SDS011;226;48.606;9.096;2023-05-10T08:20:11;1.17;;;1.07;;
479;SDS011;226;48.606;9.096;2023-05-10T08:22:42;0.90;;;0.90;;
479;SDS011;226;48.606;9.096;2023-05-10T08:25:12;1.63;;;0.90;;
479;SDS011;226;48.606;9.096;2023-05-10T08:27:41;1.43;;;0.80;;
479;SDS011;226;48.606;9.096;2023-05-10T08:30:09;4.37;;;1.13;;
479;SDS011;226;48.606;9.096;2023-05-10T08:32:39;0.80;;;0.80;;
479;SDS011;226;48.606;9.096;2023-05-10T08:35:08;1.37;;;1.10;;
479;SDS011;226;48.606;9.096;2023-05-10T08:37:36;0.70;;;0.70;;
479;SDS011;226;48.606;9.096;2023-05-10T08:40:05;0.73;;;0.73;;
479;SDS011;226;48.606;9.096;2023-05-10T08:42:34;0.93;;;0.93;;
479;SDS011;226;48.606;9.096;2023-05-10T08:45:04;0.50;;;0.50;;
479;SDS011;226;48.606;9.096;2023-05-10T08:47:33;4.20;;;0.97;;
479;SDS011;226;48.606;9.096;2023-05-10T08:50:06;0.70;;;0.70;;
479;SDS011;226;48.606;9.096;2023-05-10T08:52:35;0.67;;;0.67;;
479;SDS011;226;48.606;9.096;2023-05-10T08:55:06;0.77;;;0.77;;
479;SDS011;226;48.606;9.096;2023-05-10T08:57:35;1.27;;;1.10;;
479;SDS011;226;48.606;9.096;2023-05-10T09:00:04;0.90;;;0.90;;
479;SDS011;226;48.606;9.096;2023-05-10T09:02:34;0.60;;;0.60;;
479;SDS011;226;48.606;9.096;2023-05-10T09:05:03;0.80;;;0.70;;
479;SDS011;226;48.606;9.096;2023-05-10T09:07:33;0.80;;;0.80;;
479;SDS011;226;48.606;9.096;2023-05-10T09:10:01;0.80;;;0.70;;
479;SDS011;226;48.606;9.096;2023-05-10T09:12:30;0.93;;;0.93;;
479;SDS011;226;48.606;9.096;2023-05-10T09:14:59;0.77;;;0.77;;
479;SDS011;226;48.606;9.096;2023-05-10T09:17:28;0.70;;;0.70;;
479;SDS011;226;48.606;9.096;2023-05-10T09:19:57;0.60;;;0.60;;
479;SDS011;226;48.606;9.096;2023-05-10T09:22:26;0.67;;;0.67;;
479;SDS011;226;48.606;9.096;2023-05-10T09:25:06;1.07;;;0.70;;
479;SDS011;226;48.606;9.096;2023-05-10T09:27:35;0.70;;;0.70;;
479;SDS011;226;48.606;9.096;2023-05-10T09:30:04;0.70;;;0.60;;
479;SDS011;226;48.606;9.096;2023-05-10T09:32:36;0.73;;;0.73;;
479;SDS011;226;48.606;9.096;2023-05-10T09:35:08;1.03;;;0.70;;
479;SDS011;226;48.606;9.096;2023-05-10T09:37:38;0.60;;;0.60;;
479;SDS011;226;48.606;9.096;2023-05-10T09:40:10;0.70;;;0.70;;
479;SDS011;226;48.606;9.096;2023-05-10T09:42:40;0.60;;;0.53;;
479;SDS011;226;48.606;9.096;2023-05-10T09:45:09;0.77;;;0.77;;
479;SDS011;226;48.606;9.096;2023-05-10T09:47:37;0.63;;;0.63;;
479;SDS011;226;48.606;9.096;2023-05-10T09:50:06;0.80;;;0.80;;
479;SDS011;226;48.606;9.096;2023-05-10T09:52:45;0.50;;;0.50;;
479;SDS011;226;48.606;9.096;2023-05-10T09:55:16;1.03;;;0.60;;
479;SDS011;226;48.606;9.096;2023-05-10T09:57:45;0.87;;;0.80;;
479;SDS011;226;48.606;9.096;2023-05-10T10:00:17;0.80;;;0.80;;
479;SDS011;226;48.606;9.096;2023-05-10T10:02:46;0.80;;;0.80;;
479;SDS011;226;48.606;9.096;2023-05-10T10:05:15;1.07;;;0.90;;
479;SDS011;226;48.606;9.096;2023-05-10T10:07:44;0.57;;;0.57;;
479;SDS011;226;48.606;9.096;2023-05-10T10:10:12;0.57;;;0.57;;
479;SDS011;226;48.606;9.096;2023-05-10T10:12:42;0.50;;;0.50;;
479;SDS011;226;48.606;9.096;2023-05-10T10:15:11;0.70;;;0.67;;
479;SDS011;226;48.606;9.096;2023-05-10T10:17:42;0.60;;;0.60;;
479;SDS011;226;48.606;9.096;2023-05-10T10:20:11;0.60;;;0.60;;
479;SDS011;226;48.606;9.096;2023-05-10T10:22:40;1.53;;;0.70;;
479;SDS011;226;48.606;9.096;2023-05-10T10:25:10;1.43;;;0.73;;
479;SDS011;226;48.606;9.096;2023-05-10T10:27:43;0.60;;;0.60;;
479;SDS011;226;48.606;9.096;2023-05-10T10:30:15;0.70;;;0.70;;
479;SDS011;226;48.606;9.096;2023-05-10T10:32:53;0.60;;;0.60;;
479;SDS011;226;48.606;9.096;2023-05-10T10:35:23;0.87;;;0.80;;
479;SDS011;226;48.606;9.096;2023-05-10T10:37:52;0.73;;;0.60;;
479;SDS011;226;48.606;9.096;2023-05-10T10:40:24;0.73;;;0.73;;
479;SDS011;226;48.606;9.096;2023-05-10T10:42:54;0.80;;;0.80;;
479;SDS011;226;48.606;9.096;2023-05-10T10:45:23;1.83;;;1.33;;
479;SDS011;226;48.606;9.096;2023-05-10T10:50:45;0.73;;;0.73;;
479;SDS011;226;48.606;9.096;2023-05-10T10:53:14;2.40;;;0.93;;
479;SDS011;226;48.606;9.096;2023-05-10T10:55:45;0.80;;;0.70;;
479;SDS011;226;48.606;9.096;2023-05-10T10:58:29;0.70;;;0.70;;
479;SDS011;226;48.606;9.096;2023-05-10T11:01:11;0.97;;;0.90;;
479;SDS011;226;48.606;9.096;2023-05-10T11:03:39;0.67;;;0.67;;
479;SDS011;226;48.606;9.096;2023-05-10T11:06:08;0.70;;;0.70;;
479;SDS011;226;48.606;9.096;2023-05-10T11:08:41;0.80;;;0.80;;
479;SDS011;226;48.606;9.096;2023-05-10T11:11:14;1.90;;;0.87;;
479;SDS011;226;48.606;9.096;2023-05-10T11:13:44;0.77;;;0.77;;
479;SDS011;226;48.606;9.096;2023-05-10T11:16:17;0.70;;;0.70;;
479;SDS011;226;48.606;9.096;2023-05-10T11:18:52;0.90;;;0.87;;
479;SDS011;226;48.606;9.096;2023-05-10T11:21:21;1.63;;;1.07;;
479;SDS011;226;48.606;9.096;2023-05-10T11:23:50;1.53;;;1.20;;
479;SDS011;226;48.606;9.096;2023-05-10T11:26:22;0.73;;;0.73;;
479;SDS011;226;48.606;9.096;2023-05-10T11:28:53;1.90;;;1.10;;
479;SDS011;226;48.606;9.096;2023-05-10T11:31:27;1.20;;;0.80;;
479;SDS011;226;48.606;9.096;2023-05-10T11:33:56;1.30;;;1.13;;
479;SDS011;226;48.606;9.096;2023-05-10T11:36:25;1.43;;;1.33;;
479;SDS011;226;48.606;9.096;2023-05-10T11:38:54;1.30;;;0.90;;
479;SDS011;226;48.606;9.096;2023-05-10T11:41:23;0.93;;;0.80;;
479;SDS011;226;48.606;9.096;2023-05-10T11:43:53;1.10;;;1.00;;
479;SDS011;226;48.606;9.096;2023-05-10T11:46:22;5.70;;;0.93;;
479;SDS011;226;48.606;9.096;2023-05-10T11:48:51;1.00;;;1.00;;
479;SDS011;226;48.606;9.096;2023-05-10T11:51:20;0.93;;;0.93;;
479;SDS011;226;48.606;9.096;2023-05-10T11:53:49;1.10;;;1.00;;
479;SDS011;226;48.606;9.096;2023-05-10T11:56:18;1.03;;;1.03;;
479;SDS011;226;48.606;9.096;2023-05-10T11:58:52;0.70;;;0.70;;
479;SDS011;226;48.606;9.096;2023-05-10T12:01:22;0.90;;;0.90;;
479;SDS011;226;48.606;9.096;2023-05-10T12:03:51;1.10;;;1.03;;
479;SDS011;226;48.606;9.096;2023-05-10T12:06:21;1.50;;;1.30;;
479;SDS011;226;48.606;9.096;2023-05-10T12:08:49;1.67;;;0.77;;
479;SDS011;226;48.606;9.096;2023-05-10T12:11:20;3.30;;;0.87;;
479;SDS011;226;48.606;9.096;2023-05-10T12:13:49;1.87;;;0.97;;
479;SDS011;226;48.606;9.096;2023-05-10T12:16:18;0.60;;;0.60;;
479;SDS011;226;48.606;9.096;2023-05-10T12:18:49;1.03;;;0.93;;
479;SDS011;226;48.606;9.096;2023-05-10T12:21:18;0.67;;;0.67;;
479;SDS011;226;48.606;9.096;2023-05-10T12:26:16;1.50;;;1.40;;
479;SDS011;226;48.606;9.096;2023-05-10T12:28:44;2.17;;;0.90;;
479;SDS011;226;48.606;9.096;2023-05-10T12:31:12;1.00;;;0.80;;
479;SDS011;226;48.606;9.096;2023-05-10T12:33:41;1.83;;;0.70;;
479;SDS011;226;48.606;9.096;2023-05-10T12:36:12;1.00;;;1.00;;
479;SDS011;226;48.606;9.096;2023-05-10T12:38:41;1.43;;;0.97;;
479;SDS011;226;48.606;9.096;2023-05-10T12:41:10;6.33;;;1.00;;
479;SDS011;226;48.606;9.096;2023-05-10T12:43:39;1.00;;;1.00;;
479;SDS011;226;48.606;9.096;2023-05-10T12:46:08;0.80;;;0.80;;
479;SDS011;226;48.606;9.096;2023-05-10T12:48:37;0.60;;;0.60;;
479;SDS011;226;48.606;9.096;2023-05-10T12:51:06;0.70;;;0.70;;
479;SDS011;226;48.606;9.096;2023-05-10T12:53:37;0.80;;;0.73;;
479;SDS011;226;48.606;9.096;2023-05-10T12:56:09;1.77;;;0.90;;
479;SDS011;226;48.606;9.096;2023-05-10T12:58:37;1.37;;;0.87;;
479;SDS011;226;48.606;9.096;2023-05-10T13:01:06;0.87;;;0.87;;
479;SDS011;226;48.606;9.096;2023-05-10T13:03:35;1.27;;;1.17;;
479;SDS011;226;48.606;9.096;2023-05-10T13:06:03;4.43;;;1.20;;
479;SDS011;226;48.606;9.096;2023-05-10T13:08:32;1.00;;;1.00;;
479;SDS011;226;48.606;9.096;2023-05-10T13:11:02;1.30;;;0.97;;
479;SDS011;226;48.606;9.096;2023-05-10T13:13:30;3.47;;;0.80;;
479;SDS011;226;48.606;9.096;2023-05-10T13:15:59;0.60;;;0.60;;
479;SDS011;226;48.606;9.096;2023-05-10T13:18:27;0.93;;;0.93;;
479;SDS011;226;48.606;9.096;2023-05-10T13:20:56;1.03;;;1.00;;
479;SDS011;226;48.606;9.096;2023-05-10T13:23:24;2.20;;;0.80;;
479;SDS011;226;48.606;9.096;2023-05-10T13:25:52;2.83;;;1.23;;
479;SDS011;226;48.606;9.096;2023-05-10T13:28:22;1.57;;;1.10;;
479;SDS011;226;48.606;9.096;2023-05-10T13:30:52;1.33;;;0.90;;
479;SDS011;226;48.606;9.096;2023-05-10T13:33:20;1.07;;;1.00;;
479;SDS011;226;48.606;9.096;2023-05-10T13:35:49;1.00;;;1.00;;
479;SDS011;226;48.606;9.096;2023-05-10T13:38:20;2.57;;;1.00;;
479;SDS011;226;48.606;9.096;2023-05-10T13:40:49;0.90;;;0.90;;
479;SDS011;226;48.606;9.096;2023-05-10T13:43:19;0.70;;;0.70;;
479;SDS011;226;48.606;9.096;2023-05-10T13:45:49;1.47;;;0.90;;
479;SDS011;226;48.606;9.096;2023-05-10T13:48:17;2.63;;;2.03;;
479;SDS011;226;48.606;9.096;2023-05-10T13:50:45;2.57;;;2.37;;
479;SDS011;226;48.606;9.096;2023-05-10T13:53:14;1.73;;;1.63;;
479;SDS011;226;48.606;9.096;2023-05-10T13:55:42;1.53;;;1.43;;
479;SDS011;226;48.606;9.096;2023-05-10T13:58:10;2.33;;;1.60;;
479;SDS011;226;48.606;9.096;2023-05-10T14:00:39;3.30;;;1.40;;
479;SDS011;226;48.606;9.096;2023-05-10T14:03:09;0.73;;;0.73;;
479;SDS011;226;48.606;9.096;2023-05-10T14:05:38;1.67;;;1.33;;
479;SDS011;226;48.606;9.096;2023-05-10T14:08:06;1.00;;;1.00;;
479;SDS011;226;48.606;9.096;2023-05-10T14:10:35;1.00;;;1.00;;
479;SDS011;226;48.606;9.096;2023-05-10T14:13:04;0.77;;;0.77;;
479;SDS011;226;48.606;9.096;2023-05-10T14:15:32;1.10;;;1.00;;
479;SDS011;226;48.606;9.096;2023-05-10T14:18:00;0.90;;;0.90;;
479;SDS011;226;48.606;9.096;2023-05-10T14:20:30;0.90;;;0.80;;
479;SDS011;226;48.606;9.096;2023-05-10T14:23:00;0.70;;;0.70;;
479;SDS011;226;48.606;9.096;2023-05-10T14:25:28;0.90;;;0.90;;
479;SDS011;226;48.606;9.096;2023-05-10T14:27:57;0.90;;;0.90;;
479;SDS011;226;48.606;9.096;2023-05-10T14:30:25;1.10;;;1.10;;
479;SDS011;226;48.606;9.096;2023-05-10T14:32:53;1.17;;;1.10;;
479;SDS011;226;48.606;9.096;2023-05-10T14:35:24;1.30;;;1.20;;
479;SDS011;226;48.606;9.096;2023-05-10T14:37:54;1.07;;;1.03;;
479;SDS011;226;48.606;9.096;2023-05-10T14:40:22;3.43;;;1.00;;
479;SDS011;226;48.606;9.096;2023-05-10T14:42:51;2.30;;;1.10;;
479;SDS011;226;48.606;9.096;2023-05-10T14:45:20;7.30;;;1.53;;
479;SDS011;226;48.606;9.096;2023-05-10T14:47:48;3.50;;;1.80;;
479;SDS011;226;48.606;9.096;2023-05-10T14:50:17;1.60;;;1.50;;
479;SDS011;226;48.606;9.096;2023-05-10T14:53:03;0.90;;;0.90;;
479;SDS011;226;48.606;9.096;2023-05-10T14:55:31;2.50;;;0.80;;
479;SDS011;226;48.606;9.096;2023-05-10T14:58:01;1.00;;;1.00;;
479;SDS011;226;48.606;9.096;2023-05-10T15:00:29;0.70;;;0.67;;
479;SDS011;226;48.606;9.096;2023-05-10T15:02:58;1.43;;;1.10;;
479;SDS011;226;48.606;9.096;2023-05-10T15:05:27;1.70;;;0.70;;
479;SDS011;226;48.606;9.096;2023-05-10T15:07:56;0.77;;;0.77;;
479;SDS011;226;48.606;9.096;2023-05-10T15:10:26;2.10;;;1.23;;
479;SDS011;226;48.606;9.096;2023-05-10T15:12:54;0.70;;;0.70;;
479;SDS011;226;48.606;9.096;2023-05-10T15:15:23;1.07;;;0.80;;
479;SDS011;226;48.606;9.096;2023-05-10T15:17:51;1.57;;;0.60;;
479;SDS011;226;48.606;9.096;2023-05-10T15:20:20;2.77;;;0.90;;
479;SDS011;226;48.606;9.096;2023-05-10T15:22:48;7.10;;;0.90;;
479;SDS011;226;48.606;9.096;2023-05-10T15:25:17;0.80;;;0.80;;
479;SDS011;226;48.606;9.096;2023-05-10T15:27:46;0.80;;;0.80;;
479;SDS011;226;48.606;9.096;2023-05-10T15:30:15;0.77;;;0.77;;
479;SDS011;226;48.606;9.096;2023-05-10T15:32:43;1.03;;;0.80;;
479;SDS011;226;48.606;9.096;2023-05-10T15:35:11;1.17;;;0.83;;
479;SDS011;226;48.606;9.096;2023-05-10T15:37:41;0.70;;;0.70;;
479;SDS011;226;48.606;9.096;2023-05-10T15:40:09;0.67;;;0.67;;
479;SDS011;226;48.606;9.096;2023-05-10T15:42:38;0.60;;;0.60;;
479;SDS011;226;48.606;9.096;2023-05-10T15:45:08;1.10;;;0.80;;
479;SDS011;226;48.606;9.096;2023-05-10T15:47:37;7.07;;;0.90;;
479;SDS011;226;48.606;9.096;2023-05-10T15:50:06;0.70;;;0.70;;
479;SDS011;226;48.606;9.096;2023-05-10T15:52:35;1.00;;;0.77;;
479;SDS011;226;48.606;9.096;2023-05-10T15:55:03;0.73;;;0.73;;
479;SDS011;226;48.606;9.096;2023-05-10T15:57:38;1.97;;;0.77;;
479;SDS011;226;48.606;9.096;2023-05-10T16:00:09;0.87;;;0.87;;
479;SDS011;226;48.606;9.096;2023-05-10T16:02:37;0.80;;;0.80;;
479;SDS011;226;48.606;9.096;2023-05-10T16:05:06;0.70;;;0.70;;
479;SDS011;226;48.606;9.096;2023-05-10T16:07:35;1.13;;;1.00;;